sensor_id;sensor_type;location;lat;lon;timestamp;pressure;altitude;pressure_sealevel;temperature;humidity
9059;BME280;4564;42.034;25.834;2023-04-30T00:01:56;99944.38;;;11.90;79.37
9059;BME280;4564;42.034;25.834;2023-04-30T00:04:22;99946.66;;;11.93;77.45
9059;BME280;4564;42.034;25.834;2023-04-30T00:06:49;99948.56;;;11.93;78.63
9059;BME280;4564;42.034;25.834;2023-04-30T00:09:15;99948.56;;;11.93;78.53
9059;BME280;4564;42.034;25.834;2023-04-30T00:11:42;99945.63;;;11.94;80.18
9059;BME280;4564;42.034;25.834;2023-04-30T00:14:09;99947.31;;;11.95;79.46
9059;BME280;4564;42.034;25.834;2023-04-30T00:16:37;99947.13;;;12.03;78.70
9059;BME280;4564;42.034;25.834;2023-04-30T00:19:03;99949.44;;;12.13;79.31
9059;BME280;4564;42.034;25.834;2023-04-30T00:21:30;99951.09;;;12.01;78.75
9059;BME280;4564;42.034;25.834;2023-04-30T00:23:57;99950.22;;;11.87;79.31
9059;BME280;4564;42.034;25.834;2023-04-30T00:26:24;99949.34;;;11.80;79.46
9059;BME280;4564;42.034;25.834;2023-04-30T00:28:51;99957.69;;;11.78;79.00
9059;BME280;4564;42.034;25.834;2023-04-30T00:31:18;99950.59;;;11.77;80.22
9059;BME280;4564;42.034;25.834;2023-04-30T00:33:45;99949.78;;;11.84;79.80
9059;BME280;4564;42.034;25.834;2023-04-30T00:36:12;99959.81;;;11.76;79.70
9059;BME280;4564;42.034;25.834;2023-04-30T00:38:38;99961.25;;;11.79;80.05
9059;BME280;4564;42.034;25.834;2023-04-30T00:41:05;99964.63;;;11.81;80.89
9059;BME280;4564;42.034;25.834;2023-04-30T00:43:32;99958.16;;;11.82;79.03
9059;BME280;4564;42.034;25.834;2023-04-30T00:45:59;99971.09;;;11.80;78.60
9059;BME280;4564;42.034;25.834;2023-04-30T00:48:27;99962.72;;;11.75;79.52
9059;BME280;4564;42.034;25.834;2023-04-30T00:50:56;99972.75;;;11.74;80.15
9059;BME280;4564;42.034;25.834;2023-04-30T00:53:22;99964.59;;;11.74;80.32
9059;BME280;4564;42.034;25.834;2023-04-30T00:55:49;99969.41;;;11.79;80.51
9059;BME280;4564;42.034;25.834;2023-04-30T00:58:17;99963.97;;;11.79;80.65
9059;BME280;4564;42.034;25.834;2023-04-30T01:00:44;99959.50;;;11.65;81.89
9059;BME280;4564;42.034;25.834;2023-04-30T01:03:12;99959.75;;;11.70;81.96
9059;BME280;4564;42.034;25.834;2023-04-30T01:05:38;99956.88;;;11.78;81.55
9059;BME280;4564;42.034;25.834;2023-04-30T01:08:06;99957.22;;;11.68;82.45
9059;BME280;4564;42.034;25.834;2023-04-30T01:10:35;99950.06;;;11.61;83.26
9059;BME280;4564;42.034;25.834;2023-04-30T01:13:07;99955.25;;;11.56;82.90
9059;BME280;4564;42.034;25.834;2023-04-30T01:15:40;99955.03;;;11.44;83.60
9059;BME280;4564;42.034;25.834;2023-04-30T01:18:08;99962.09;;;11.39;84.96
9059;BME280;4564;42.034;25.834;2023-04-30T01:20:38;99950.13;;;11.26;85.49
9059;BME280;4564;42.034;25.834;2023-04-30T01:23:13;99949.41;;;11.18;86.50
9059;BME280;4564;42.034;25.834;2023-04-30T01:25:50;99949.53;;;11.03;88.36
9059;BME280;4564;42.034;25.834;2023-04-30T01:28:20;99953.69;;;10.99;88.95
9059;BME280;4564;42.034;25.834;2023-04-30T01:30:48;99951.06;;;11.12;87.40
9059;BME280;4564;42.034;25.834;2023-04-30T01:33:16;99945.47;;;11.20;86.87
9059;BME280;4564;42.034;25.834;2023-04-30T01:35:54;99935.25;;;11.22;86.55
9059;BME280;4564;42.034;25.834;2023-04-30T01:38:27;99940.28;;;11.25;86.88
9059;BME280;4564;42.034;25.834;2023-04-30T01:41:00;99944.44;;;11.21;87.07
9059;BME280;4564;42.034;25.834;2023-04-30T01:43:32;99947.13;;;11.15;87.24
9059;BME280;4564;42.034;25.834;2023-04-30T01:46:05;99954.50;;;11.27;87.52
9059;BME280;4564;42.034;25.834;2023-04-30T01:48:38;99954.00;;;11.11;87.85
9059;BME280;4564;42.034;25.834;2023-04-30T01:51:07;99960.09;;;10.91;89.49
9059;BME280;4564;42.034;25.834;2023-04-30T01:53:39;99958.72;;;10.74;90.52
9059;BME280;4564;42.034;25.834;2023-04-30T01:56:07;99948.22;;;10.65;91.81
9059;BME280;4564;42.034;25.834;2023-04-30T01:58:36;99951.06;;;10.57;92.24
9059;BME280;4564;42.034;25.834;2023-04-30T02:01:03;99947.72;;;10.55;93.14
9059;BME280;4564;42.034;25.834;2023-04-30T02:03:31;99946.50;;;10.57;93.77
9059;BME280;4564;42.034;25.834;2023-04-30T02:05:57;99938.97;;;10.59;93.79
9059;BME280;4564;42.034;25.834;2023-04-30T02:08:24;99942.03;;;10.49;94.52
9059;BME280;4564;42.034;25.834;2023-04-30T02:10:51;99944.38;;;10.52;93.90
9059;BME280;4564;42.034;25.834;2023-04-30T02:13:17;99949.22;;;10.64;93.52
9059;BME280;4564;42.034;25.834;2023-04-30T02:15:45;99956.09;;;10.60;92.63
9059;BME280;4564;42.034;25.834;2023-04-30T02:18:12;99946.16;;;10.67;92.53
9059;BME280;4564;42.034;25.834;2023-04-30T02:20:38;99956.59;;;10.70;89.77
9059;BME280;4564;42.034;25.834;2023-04-30T02:23:05;99949.34;;;10.77;89.96
9059;BME280;4564;42.034;25.834;2023-04-30T02:25:34;99951.72;;;10.86;88.53
9059;BME280;4564;42.034;25.834;2023-04-30T02:28:02;99952.56;;;10.87;88.05
9059;BME280;4564;42.034;25.834;2023-04-30T02:30:29;99948.63;;;10.89;87.97
9059;BME280;4564;42.034;25.834;2023-04-30T02:32:57;99953.34;;;10.81;87.56
9059;BME280;4564;42.034;25.834;2023-04-30T02:35:23;99945.84;;;10.83;88.36
9059;BME280;4564;42.034;25.834;2023-04-30T02:37:50;99940.84;;;10.86;87.48
9059;BME280;4564;42.034;25.834;2023-04-30T02:40:16;99943.78;;;10.85;87.45
9059;BME280;4564;42.034;25.834;2023-04-30T02:42:43;99948.75;;;10.81;86.61
9059;BME280;4564;42.034;25.834;2023-04-30T02:45:10;99955.03;;;10.82;86.93
9059;BME280;4564;42.034;25.834;2023-04-30T02:47:36;99952.97;;;10.84;86.20
9059;BME280;4564;42.034;25.834;2023-04-30T02:50:05;99944.34;;;10.74;86.79
9059;BME280;4564;42.034;25.834;2023-04-30T02:52:31;99956.22;;;10.73;86.51
9059;BME280;4564;42.034;25.834;2023-04-30T02:54:58;99941.09;;;10.64;86.57
9059;BME280;4564;42.034;25.834;2023-04-30T02:57:25;99948.22;;;10.65;86.81
9059;BME280;4564;42.034;25.834;2023-04-30T02:59:51;99945.44;;;10.58;87.11
9059;BME280;4564;42.034;25.834;2023-04-30T03:02:18;99950.03;;;10.58;87.51
9059;BME280;4564;42.034;25.834;2023-04-30T03:04:47;99949.81;;;10.59;87.45
9059;BME280;4564;42.034;25.834;2023-04-30T03:07:15;99947.53;;;10.56;87.82
9059;BME280;4564;42.034;25.834;2023-04-30T03:09:42;99948.69;;;10.75;86.97
9059;BME280;4564;42.034;25.834;2023-04-30T03:12:08;99952.22;;;10.69;87.31
9059;BME280;4564;42.034;25.834;2023-04-30T03:14:35;99965.81;;;10.69;87.30
9059;BME280;4564;42.034;25.834;2023-04-30T03:17:02;99961.41;;;10.68;87.01
9059;BME280;4564;42.034;25.834;2023-04-30T03:19:28;99955.06;;;10.61;87.82
9059;BME280;4564;42.034;25.834;2023-04-30T03:21:56;99952.22;;;10.47;88.57
9059;BME280;4564;42.034;25.834;2023-04-30T03:24:24;99949.50;;;10.47;89.13
9059;BME280;4564;42.034;25.834;2023-04-30T03:26:50;99953.47;;;10.45;89.50
9059;BME280;4564;42.034;25.834;2023-04-30T03:29:17;99948.63;;;10.40;88.86
9059;BME280;4564;42.034;25.834;2023-04-30T03:31:43;99959.09;;;10.43;87.83
9059;BME280;4564;42.034;25.834;2023-04-30T03:34:10;99956.69;;;10.34;89.03
9059;BME280;4564;42.034;25.834;2023-04-30T03:36:36;99963.47;;;10.44;88.45
9059;BME280;4564;42.034;25.834;2023-04-30T03:39:03;99965.66;;;10.56;87.81
9059;BME280;4564;42.034;25.834;2023-04-30T03:41:31;99974.59;;;10.49;88.46
9059;BME280;4564;42.034;25.834;2023-04-30T03:43:58;99970.06;;;10.57;89.27
9059;BME280;4564;42.034;25.834;2023-04-30T03:46:24;99973.66;;;10.64;88.58
9059;BME280;4564;42.034;25.834;2023-04-30T03:48:51;99976.56;;;10.83;88.34
9059;BME280;4564;42.034;25.834;2023-04-30T03:51:18;99978.97;;;11.00;87.47
9059;BME280;4564;42.034;25.834;2023-04-30T03:53:45;99979.47;;;11.10;86.95
9059;BME280;4564;42.034;25.834;2023-04-30T03:56:12;99977.88;;;11.22;85.98
9059;BME280;4564;42.034;25.834;2023-04-30T03:58:40;99987.34;;;11.32;85.21
9059;BME280;4564;42.034;25.834;2023-04-30T04:01:07;99990.31;;;11.38;84.58
9059;BME280;4564;42.034;25.834;2023-04-30T04:03:33;99993.25;;;11.43;83.37
9059;BME280;4564;42.034;25.834;2023-04-30T04:06:00;99998.81;;;11.28;84.39
9059;BME280;4564;42.034;25.834;2023-04-30T04:08:29;99999.69;;;11.35;84.49
9059;BME280;4564;42.034;25.834;2023-04-30T04:10:56;99991.75;;;11.33;84.05
9059;BME280;4564;42.034;25.834;2023-04-30T04:13:23;99995.75;;;11.38;83.45
9059;BME280;4564;42.034;25.834;2023-04-30T04:15:51;99998.94;;;11.48;82.69
9059;BME280;4564;42.034;25.834;2023-04-30T04:18:18;99994.53;;;11.47;82.44
9059;BME280;4564;42.034;25.834;2023-04-30T04:20:44;100000.13;;;11.39;82.32
9059;BME280;4564;42.034;25.834;2023-04-30T04:23:11;99999.13;;;11.46;82.50
9059;BME280;4564;42.034;25.834;2023-04-30T04:25:38;100003.72;;;11.46;82.97
9059;BME280;4564;42.034;25.834;2023-04-30T04:28:05;100002.28;;;11.50;82.77
9059;BME280;4564;42.034;25.834;2023-04-30T04:30:32;100001.44;;;11.49;82.43
9059;BME280;4564;42.034;25.834;2023-04-30T04:33:00;100000.19;;;11.52;82.87
9059;BME280;4564;42.034;25.834;2023-04-30T04:35:27;99993.97;;;11.58;82.73
9059;BME280;4564;42.034;25.834;2023-04-30T04:37:53;100001.63;;;11.75;83.20
9059;BME280;4564;42.034;25.834;2023-04-30T04:40:20;99998.50;;;11.85;81.63
9059;BME280;4564;42.034;25.834;2023-04-30T04:42:48;99992.53;;;12.03;79.15
9059;BME280;4564;42.034;25.834;2023-04-30T04:45:15;99995.03;;;12.04;78.81
9059;BME280;4564;42.034;25.834;2023-04-30T04:47:42;99999.25;;;12.20;78.77
9059;BME280;4564;42.034;25.834;2023-04-30T04:50:10;100000.78;;;12.36;77.66
9059;BME280;4564;42.034;25.834;2023-04-30T04:52:37;100007.88;;;12.30;76.97
9059;BME280;4564;42.034;25.834;2023-04-30T04:55:04;100008.94;;;12.42;77.00
9059;BME280;4564;42.034;25.834;2023-04-30T04:57:31;100011.88;;;12.34;77.54
9059;BME280;4564;42.034;25.834;2023-04-30T04:59:58;100021.09;;;12.40;76.67
9059;BME280;4564;42.034;25.834;2023-04-30T05:02:24;100023.16;;;12.38;76.91
9059;BME280;4564;42.034;25.834;2023-04-30T05:04:51;100023.22;;;12.51;75.53
9059;BME280;4564;42.034;25.834;2023-04-30T05:07:19;100025.28;;;12.49;76.85
9059;BME280;4564;42.034;25.834;2023-04-30T05:09:46;100022.75;;;12.47;77.52
9059;BME280;4564;42.034;25.834;2023-04-30T05:12:13;100021.94;;;12.53;77.98
9059;BME280;4564;42.034;25.834;2023-04-30T05:14:40;100024.88;;;12.58;75.68
9059;BME280;4564;42.034;25.834;2023-04-30T05:17:07;100028.03;;;12.55;74.32
9059;BME280;4564;42.034;25.834;2023-04-30T05:19:33;100021.13;;;12.66;75.60
9059;BME280;4564;42.034;25.834;2023-04-30T05:22:00;100029.53;;;12.84;75.44
9059;BME280;4564;42.034;25.834;2023-04-30T05:24:28;100027.84;;;12.83;73.96
9059;BME280;4564;42.034;25.834;2023-04-30T05:26:55;100034.53;;;12.81;72.99
9059;BME280;4564;42.034;25.834;2023-04-30T05:29:21;100035.59;;;12.67;72.34
9059;BME280;4564;42.034;25.834;2023-04-30T05:31:48;100034.94;;;12.58;73.83
9059;BME280;4564;42.034;25.834;2023-04-30T05:34:14;100033.47;;;12.69;73.91
9059;BME280;4564;42.034;25.834;2023-04-30T05:36:41;100028.25;;;12.80;74.79
9059;BME280;4564;42.034;25.834;2023-04-30T05:39:08;100038.13;;;12.94;72.49
9059;BME280;4564;42.034;25.834;2023-04-30T05:41:36;100039.59;;;13.03;71.17
9059;BME280;4564;42.034;25.834;2023-04-30T05:44:02;100040.03;;;13.00;70.86
9059;BME280;4564;42.034;25.834;2023-04-30T05:46:29;100039.84;;;13.15;70.79
9059;BME280;4564;42.034;25.834;2023-04-30T05:48:55;100036.28;;;13.28;70.78
9059;BME280;4564;42.034;25.834;2023-04-30T05:51:22;100046.50;;;13.39;70.31
9059;BME280;4564;42.034;25.834;2023-04-30T05:53:49;100035.59;;;13.59;69.27
9059;BME280;4564;42.034;25.834;2023-04-30T05:56:15;100052.09;;;13.77;69.13
9059;BME280;4564;42.034;25.834;2023-04-30T05:58:43;100054.63;;;13.78;69.05
9059;BME280;4564;42.034;25.834;2023-04-30T06:01:10;100057.16;;;13.73;68.89
9059;BME280;4564;42.034;25.834;2023-04-30T06:03:37;100048.94;;;13.86;69.48
9059;BME280;4564;42.034;25.834;2023-04-30T06:06:03;100051.22;;;13.96;69.50
9059;BME280;4564;42.034;25.834;2023-04-30T06:08:30;100054.91;;;14.15;69.92
9059;BME280;4564;42.034;25.834;2023-04-30T06:10:56;100049.22;;;14.23;68.55
9059;BME280;4564;42.034;25.834;2023-04-30T06:13:23;100056.94;;;14.39;68.23
9059;BME280;4564;42.034;25.834;2023-04-30T06:15:51;100057.13;;;14.44;67.75
9059;BME280;4564;42.034;25.834;2023-04-30T06:18:18;100064.50;;;14.37;68.36
9059;BME280;4564;42.034;25.834;2023-04-30T06:20:44;100061.50;;;14.52;67.69
9059;BME280;4564;42.034;25.834;2023-04-30T06:23:11;100054.94;;;14.59;66.77
9059;BME280;4564;42.034;25.834;2023-04-30T06:25:38;100052.06;;;14.79;67.22
9059;BME280;4564;42.034;25.834;2023-04-30T06:28:04;100057.94;;;14.83;65.66
9059;BME280;4564;42.034;25.834;2023-04-30T06:30:33;100057.06;;;14.89;65.75
9059;BME280;4564;42.034;25.834;2023-04-30T06:33:01;100054.03;;;14.97;65.29
9059;BME280;4564;42.034;25.834;2023-04-30T06:35:28;100063.66;;;15.06;65.17
9059;BME280;4564;42.034;25.834;2023-04-30T06:37:54;100059.16;;;14.87;65.30
9059;BME280;4564;42.034;25.834;2023-04-30T06:40:21;100059.03;;;14.75;66.67
9059;BME280;4564;42.034;25.834;2023-04-30T06:42:48;100055.91;;;14.72;67.41
9059;BME280;4564;42.034;25.834;2023-04-30T06:45:14;100058.28;;;14.93;67.29
9059;BME280;4564;42.034;25.834;2023-04-30T06:47:41;100057.75;;;15.09;67.19
9059;BME280;4564;42.034;25.834;2023-04-30T06:50:11;100066.56;;;15.11;66.67
9059;BME280;4564;42.034;25.834;2023-04-30T06:52:39;100059.63;;;15.08;66.81
9059;BME280;4564;42.034;25.834;2023-04-30T06:55:06;100055.88;;;15.03;67.98
9059;BME280;4564;42.034;25.834;2023-04-30T06:57:33;100058.97;;;15.13;67.49
9059;BME280;4564;42.034;25.834;2023-04-30T07:00:01;100051.47;;;15.02;67.21
9059;BME280;4564;42.034;25.834;2023-04-30T07:02:28;100056.72;;;15.28;66.85
9059;BME280;4564;42.034;25.834;2023-04-30T07:04:55;100055.97;;;15.21;67.39
9059;BME280;4564;42.034;25.834;2023-04-30T07:07:23;100056.88;;;15.33;67.37
9059;BME280;4564;42.034;25.834;2023-04-30T07:09:49;100056.31;;;15.49;68.10
9059;BME280;4564;42.034;25.834;2023-04-30T07:12:17;100058.84;;;15.76;67.10
9059;BME280;4564;42.034;25.834;2023-04-30T07:14:44;100054.72;;;15.67;66.95
9059;BME280;4564;42.034;25.834;2023-04-30T07:17:10;100055.25;;;15.93;66.32
9059;BME280;4564;42.034;25.834;2023-04-30T07:19:37;100052.81;;;16.22;65.41
9059;BME280;4564;42.034;25.834;2023-04-30T07:22:03;100053.50;;;16.35;64.60
9059;BME280;4564;42.034;25.834;2023-04-30T07:24:31;100053.28;;;16.01;65.91
9059;BME280;4564;42.034;25.834;2023-04-30T07:26:58;100053.09;;;16.32;64.77
9059;BME280;4564;42.034;25.834;2023-04-30T07:29:27;100053.78;;;16.46;64.40
9059;BME280;4564;42.034;25.834;2023-04-30T07:31:54;100058.03;;;16.60;63.88
9059;BME280;4564;42.034;25.834;2023-04-30T07:34:21;100055.72;;;16.57;64.94
9059;BME280;4564;42.034;25.834;2023-04-30T07:36:48;100050.47;;;16.85;63.51
9059;BME280;4564;42.034;25.834;2023-04-30T07:39:15;100054.91;;;16.86;63.15
9059;BME280;4564;42.034;25.834;2023-04-30T07:41:43;100053.47;;;16.95;62.49
9059;BME280;4564;42.034;25.834;2023-04-30T07:44:10;100061.69;;;17.83;61.47
9059;BME280;4564;42.034;25.834;2023-04-30T07:46:37;100054.50;;;19.19;55.92
9059;BME280;4564;42.034;25.834;2023-04-30T07:49:03;100058.91;;;20.08;54.41
9059;BME280;4564;42.034;25.834;2023-04-30T07:51:30;100061.31;;;20.92;52.09
9059;BME280;4564;42.034;25.834;2023-04-30T07:53:58;100061.72;;;21.32;48.51
9059;BME280;4564;42.034;25.834;2023-04-30T07:56:24;100059.34;;;21.46;48.76
9059;BME280;4564;42.034;25.834;2023-04-30T07:58:52;100069.25;;;21.79;46.26
9059;BME280;4564;42.034;25.834;2023-04-30T08:01:19;100064.13;;;22.50;45.76
9059;BME280;4564;42.034;25.834;2023-04-30T08:03:45;100057.03;;;22.89;44.44
9059;BME280;4564;42.034;25.834;2023-04-30T08:06:12;100063.47;;;23.15;44.23
9059;BME280;4564;42.034;25.834;2023-04-30T08:08:38;100053.22;;;23.16;44.45
9059;BME280;4564;42.034;25.834;2023-04-30T08:11:05;100054.31;;;23.25;42.89
9059;BME280;4564;42.034;25.834;2023-04-30T08:13:32;100057.09;;;23.10;41.92
9059;BME280;4564;42.034;25.834;2023-04-30T08:15:59;100059.75;;;22.69;42.72
9059;BME280;4564;42.034;25.834;2023-04-30T08:18:26;100060.09;;;22.78;43.53
9059;BME280;4564;42.034;25.834;2023-04-30T08:20:53;100058.63;;;22.70;44.84
9059;BME280;4564;42.034;25.834;2023-04-30T08:23:19;100054.81;;;22.76;43.07
9059;BME280;4564;42.034;25.834;2023-04-30T08:25:46;100057.44;;;22.41;44.07
9059;BME280;4564;42.034;25.834;2023-04-30T08:28:12;100064.31;;;22.33;44.58
9059;BME280;4564;42.034;25.834;2023-04-30T08:30:39;100053.44;;;22.11;47.04
9059;BME280;4564;42.034;25.834;2023-04-30T08:33:07;100055.69;;;22.19;46.00
9059;BME280;4564;42.034;25.834;2023-04-30T08:35:33;100062.44;;;22.44;46.53
9059;BME280;4564;42.034;25.834;2023-04-30T08:38:00;100053.09;;;22.60;46.12
9059;BME280;4564;42.034;25.834;2023-04-30T08:40:27;100062.34;;;22.18;49.25
9059;BME280;4564;42.034;25.834;2023-04-30T08:42:56;100050.81;;;22.47;46.98
9059;BME280;4564;42.034;25.834;2023-04-30T08:45:25;100051.84;;;22.26;45.58
9059;BME280;4564;42.034;25.834;2023-04-30T08:47:52;100047.44;;;21.83;46.60
9059;BME280;4564;42.034;25.834;2023-04-30T08:50:23;100052.41;;;22.23;47.33
9059;BME280;4564;42.034;25.834;2023-04-30T08:52:49;100040.19;;;23.06;43.81
9059;BME280;4564;42.034;25.834;2023-04-30T08:55:16;100042.69;;;22.97;44.31
9059;BME280;4564;42.034;25.834;2023-04-30T08:57:42;100044.66;;;23.48;42.77
9059;BME280;4564;42.034;25.834;2023-04-30T09:00:09;100045.50;;;23.53;41.14
9059;BME280;4564;42.034;25.834;2023-04-30T09:02:38;100037.44;;;23.41;43.15
9059;BME280;4564;42.034;25.834;2023-04-30T09:05:06;100037.16;;;23.08;42.69
9059;BME280;4564;42.034;25.834;2023-04-30T09:07:37;100042.69;;;22.97;43.56
9059;BME280;4564;42.034;25.834;2023-04-30T09:10:10;100029.41;;;23.20;43.86
9059;BME280;4564;42.034;25.834;2023-04-30T09:12:42;100019.97;;;23.00;43.91
9059;BME280;4564;42.034;25.834;2023-04-30T09:15:10;100021.59;;;22.71;44.44
9059;BME280;4564;42.034;25.834;2023-04-30T09:17:37;100016.50;;;22.43;45.41
9059;BME280;4564;42.034;25.834;2023-04-30T09:20:07;100018.47;;;21.85;44.00
9059;BME280;4564;42.034;25.834;2023-04-30T09:22:34;100009.78;;;21.29;47.15
9059;BME280;4564;42.034;25.834;2023-04-30T09:25:03;100006.84;;;21.09;48.41
9059;BME280;4564;42.034;25.834;2023-04-30T09:27:30;100003.91;;;20.62;48.46
9059;BME280;4564;42.034;25.834;2023-04-30T09:29:56;100000.84;;;20.59;49.71
9059;BME280;4564;42.034;25.834;2023-04-30T09:32:23;99991.19;;;20.56;48.16
9059;BME280;4564;42.034;25.834;2023-04-30T09:34:50;99985.94;;;20.11;48.95
9059;BME280;4564;42.034;25.834;2023-04-30T09:37:16;99988.06;;;20.04;48.71
9059;BME280;4564;42.034;25.834;2023-04-30T09:39:46;99986.78;;;20.11;48.44
9059;BME280;4564;42.034;25.834;2023-04-30T09:42:15;99990.81;;;20.04;48.17
9059;BME280;4564;42.034;25.834;2023-04-30T09:44:42;99985.38;;;20.09;46.62
9059;BME280;4564;42.034;25.834;2023-04-30T09:47:12;99984.16;;;20.22;48.01
9059;BME280;4564;42.034;25.834;2023-04-30T09:49:40;99976.97;;;19.99;47.64
9059;BME280;4564;42.034;25.834;2023-04-30T09:52:07;99977.50;;;19.96;47.40
9059;BME280;4564;42.034;25.834;2023-04-30T09:54:33;99972.53;;;20.20;48.41
9059;BME280;4564;42.034;25.834;2023-04-30T09:57:01;99970.81;;;20.35;48.18
9059;BME280;4564;42.034;25.834;2023-04-30T09:59:30;99969.09;;;20.29;46.63
9059;BME280;4564;42.034;25.834;2023-04-30T10:01:57;99960.44;;;20.21;47.73
9059;BME280;4564;42.034;25.834;2023-04-30T10:04:25;99962.28;;;20.15;47.26
9059;BME280;4564;42.034;25.834;2023-04-30T10:06:51;99959.53;;;20.15;47.42
9059;BME280;4564;42.034;25.834;2023-04-30T10:09:20;99958.25;;;20.23;48.57
9059;BME280;4564;42.034;25.834;2023-04-30T10:11:48;99962.16;;;20.27;47.92
9059;BME280;4564;42.034;25.834;2023-04-30T10:14:16;99963.00;;;20.27;45.88
9059;BME280;4564;42.034;25.834;2023-04-30T10:16:46;99954.44;;;20.50;47.10
9059;BME280;4564;42.034;25.834;2023-04-30T10:19:18;99959.16;;;20.82;45.84
9059;BME280;4564;42.034;25.834;2023-04-30T10:21:45;99953.44;;;20.88;45.06
9059;BME280;4564;42.034;25.834;2023-04-30T10:24:13;99947.31;;;20.55;45.35
9059;BME280;4564;42.034;25.834;2023-04-30T10:26:39;99941.31;;;20.36;46.01
9059;BME280;4564;42.034;25.834;2023-04-30T10:29:06;99941.97;;;20.21;46.42
9059;BME280;4564;42.034;25.834;2023-04-30T10:31:33;99940.94;;;20.27;46.91
9059;BME280;4564;42.034;25.834;2023-04-30T10:34:03;99935.06;;;20.40;46.82
9059;BME280;4564;42.034;25.834;2023-04-30T10:36:34;99931.19;;;20.41;46.14
9059;BME280;4564;42.034;25.834;2023-04-30T10:39:02;99923.84;;;20.52;45.82
9059;BME280;4564;42.034;25.834;2023-04-30T10:41:30;99928.59;;;20.57;45.39
9059;BME280;4564;42.034;25.834;2023-04-30T10:43:57;99922.97;;;20.78;45.78
9059;BME280;4564;42.034;25.834;2023-04-30T10:46:24;99918.63;;;20.82;44.21
9059;BME280;4564;42.034;25.834;2023-04-30T10:48:51;99915.88;;;21.19;43.48
9059;BME280;4564;42.034;25.834;2023-04-30T10:51:20;99909.09;;;21.37;43.82
9059;BME280;4564;42.034;25.834;2023-04-30T10:53:48;99909.09;;;21.37;43.61
9059;BME280;4564;42.034;25.834;2023-04-30T10:56:27;99907.72;;;21.45;42.94
9059;BME280;4564;42.034;25.834;2023-04-30T10:58:57;99914.94;;;21.46;42.83
9059;BME280;4564;42.034;25.834;2023-04-30T11:01:24;99904.53;;;21.63;42.73
9059;BME280;4564;42.034;25.834;2023-04-30T11:04:03;99912.19;;;21.51;43.28
9059;BME280;4564;42.034;25.834;2023-04-30T11:06:47;99904.09;;;21.91;42.95
9059;BME280;4564;42.034;25.834;2023-04-30T11:09:14;99903.63;;;22.14;41.58
9059;BME280;4564;42.034;25.834;2023-04-30T11:11:42;99896.13;;;22.05;41.29
9059;BME280;4564;42.034;25.834;2023-04-30T11:14:10;99909.88;;;21.90;40.87
9059;BME280;4564;42.034;25.834;2023-04-30T11:16:37;99896.50;;;22.49;39.49
9059;BME280;4564;42.034;25.834;2023-04-30T11:19:06;99902.06;;;22.79;39.58
9059;BME280;4564;42.034;25.834;2023-04-30T11:21:38;99905.91;;;22.68;39.78
9059;BME280;4564;42.034;25.834;2023-04-30T11:24:06;99904.22;;;22.42;38.69
9059;BME280;4564;42.034;25.834;2023-04-30T11:29:15;99898.09;;;22.19;39.14
9059;BME280;4564;42.034;25.834;2023-04-30T11:31:42;99899.25;;;22.39;38.37
9059;BME280;4564;42.034;25.834;2023-04-30T11:34:09;99897.59;;;22.43;38.23
9059;BME280;4564;42.034;25.834;2023-04-30T11:36:37;99897.34;;;22.59;37.82
9059;BME280;4564;42.034;25.834;2023-04-30T11:39:07;99894.00;;;22.42;37.97
9059;BME280;4564;42.034;25.834;2023-04-30T11:41:39;99901.19;;;22.48;38.04
9059;BME280;4564;42.034;25.834;2023-04-30T11:44:20;99899.78;;;22.36;38.32
9059;BME280;4564;42.034;25.834;2023-04-30T11:46:47;99893.41;;;22.20;37.64
9059;BME280;4564;42.034;25.834;2023-04-30T11:49:14;99894.78;;;22.12;39.17
9059;BME280;4564;42.034;25.834;2023-04-30T11:51:40;99887.03;;;22.14;39.50
9059;BME280;4564;42.034;25.834;2023-04-30T11:54:08;99895.66;;;22.38;38.39
9059;BME280;4564;42.034;25.834;2023-04-30T11:56:39;99893.72;;;22.49;36.79
9059;BME280;4564;42.034;25.834;2023-04-30T11:59:09;99894.31;;;22.66;36.78
9059;BME280;4564;42.034;25.834;2023-04-30T12:01:36;99893.75;;;22.84;35.78
9059;BME280;4564;42.034;25.834;2023-04-30T12:04:03;99891.25;;;23.13;36.25
9059;BME280;4564;42.034;25.834;2023-04-30T12:06:30;99885.94;;;23.27;36.08
9059;BME280;4564;42.034;25.834;2023-04-30T12:08:57;99879.25;;;23.43;35.97
9059;BME280;4564;42.034;25.834;2023-04-30T12:11:27;99878.13;;;23.64;36.57
9059;BME280;4564;42.034;25.834;2023-04-30T12:13:54;99883.00;;;23.82;34.92
9059;BME280;4564;42.034;25.834;2023-04-30T12:16:21;99884.63;;;23.94;33.86
9059;BME280;4564;42.034;25.834;2023-04-30T12:18:49;99877.41;;;23.93;34.10
9059;BME280;4564;42.034;25.834;2023-04-30T12:21:16;99865.34;;;24.22;34.43
9059;BME280;4564;42.034;25.834;2023-04-30T12:23:43;99883.66;;;24.23;33.88
9059;BME280;4564;42.034;25.834;2023-04-30T12:26:09;99873.84;;;23.87;34.69
9059;BME280;4564;42.034;25.834;2023-04-30T12:28:38;99877.97;;;23.95;35.21
9059;BME280;4564;42.034;25.834;2023-04-30T12:31:05;99877.50;;;23.72;34.91
9059;BME280;4564;42.034;25.834;2023-04-30T12:33:32;99872.56;;;23.64;33.08
9059;BME280;4564;42.034;25.834;2023-04-30T12:35:59;99875.66;;;23.42;33.33
9059;BME280;4564;42.034;25.834;2023-04-30T12:38:26;99874.06;;;23.26;33.01
9059;BME280;4564;42.034;25.834;2023-04-30T12:40:53;99871.59;;;23.10;32.68
9059;BME280;4564;42.034;25.834;2023-04-30T12:43:19;99865.78;;;23.06;32.64
9059;BME280;4564;42.034;25.834;2023-04-30T12:45:48;99871.03;;;23.13;32.21
9059;BME280;4564;42.034;25.834;2023-04-30T12:48:16;99860.50;;;23.15;32.71
9059;BME280;4564;42.034;25.834;2023-04-30T12:50:47;99864.94;;;23.00;32.41
9059;BME280;4564;42.034;25.834;2023-04-30T12:53:14;99859.16;;;22.97;31.56
9059;BME280;4564;42.034;25.834;2023-04-30T12:55:41;99869.94;;;23.04;32.26
9059;BME280;4564;42.034;25.834;2023-04-30T12:58:08;99868.56;;;22.86;33.14
9059;BME280;4564;42.034;25.834;2023-04-30T13:00:45;99869.41;;;22.56;33.59
9059;BME280;4564;42.034;25.834;2023-04-30T13:03:13;99855.28;;;22.37;34.28
9059;BME280;4564;42.034;25.834;2023-04-30T13:05:40;99864.94;;;22.25;35.04
9059;BME280;4564;42.034;25.834;2023-04-30T13:08:07;99867.31;;;21.86;36.32
9059;BME280;4564;42.034;25.834;2023-04-30T13:10:34;99862.03;;;21.79;37.28
9059;BME280;4564;42.034;25.834;2023-04-30T13:13:00;99856.44;;;21.54;38.51